Terminal Aerodrome Forecast
Issued by NWS

Home | Current Version | Previous Version | Text Only | Print | Product List | Glossary On
Versions: 1 2 3 4 5 6 7 8 9 10 11 12 13 14 15 16 17 18 19
000
FTUS43 KIND 191700
TAFHUF
TAF
KHUF 191730Z 1918/2018 09007KT 3SM -RA BR OVC009
     FM192000 22010KT 5SM -SHRA BR OVC005
     FM192300 22013KT 5SM BR VCSH OVC010
     FM200300 22004KT P6SM OVC010
     FM201400 27012G20KT 5SM -SHRA BR OVC015=

USA.gov is the U.S. government's official web portal to all federal, state and local government web resources and services.